createdAt,value
2019-06-20T00:00:44.404Z,80.50
2019-06-20T00:03:12.886Z,80.80
2019-06-20T00:05:41.394Z,82.30
2019-06-20T00:08:10.171Z,77.80
2019-06-20T00:10:38.802Z,79.30
2019-06-20T00:13:07.282Z,83.70
2019-06-20T00:15:36.060Z,85.30
2019-06-20T00:18:04.548Z,86.60
2019-06-20T00:20:33.027Z,86.20
2019-06-20T00:23:01.527Z,87.20
2019-06-20T00:25:30.776Z,87.60
2019-06-20T00:27:59.583Z,86.60
2019-06-20T00:30:28.016Z,87.80
2019-06-20T00:32:56.469Z,88.90
2019-06-20T00:35:24.970Z,88.90
2019-06-20T00:37:53.422Z,89.00
2019-06-20T00:40:21.974Z,88.80
2019-06-20T00:42:50.406Z,87.80
2019-06-20T00:45:19.374Z,89.90
2019-06-20T00:47:47.882Z,90.40
2019-06-20T00:50:16.550Z,90.80
2019-06-20T00:52:44.992Z,90.80
2019-06-20T00:55:13.607Z,91.00
2019-06-20T00:57:42.061Z,91.20
2019-06-20T01:00:12.051Z,91.20
2019-06-20T01:02:40.504Z,91.30
2019-06-20T01:05:09.271Z,91.30
2019-06-20T01:07:37.716Z,91.30
2019-06-20T01:10:09.600Z,91.20
2019-06-20T01:12:38.026Z,91.20
2019-06-20T01:15:09.083Z,91.00
2019-06-20T01:17:37.651Z,91.10
2019-06-20T01:20:09.994Z,91.10
2019-06-20T01:22:38.433Z,91.20
2019-06-20T01:25:08.188Z,91.10
2019-06-20T01:27:37.770Z,91.30
2019-06-20T01:30:10.079Z,91.40
2019-06-20T01:32:38.604Z,91.30
2019-06-20T01:35:08.967Z,91.20
2019-06-20T01:37:37.476Z,91.00
2019-06-20T01:40:06.618Z,90.90
2019-06-20T01:42:35.271Z,90.60
2019-06-20T01:45:08.046Z,90.70
2019-06-20T01:47:36.541Z,90.90
2019-06-20T01:50:06.885Z,91.10
2019-06-20T01:52:35.318Z,91.00
2019-06-20T01:55:05.002Z,91.30
2019-06-20T01:57:33.423Z,91.40
2019-06-20T02:00:01.947Z,91.50
2019-06-20T02:02:30.633Z,91.50
2019-06-20T02:04:59.245Z,91.60
2019-06-20T02:07:28.347Z,91.70
2019-06-20T02:09:56.973Z,91.80
2019-06-20T02:12:25.459Z,91.90
2019-06-20T02:14:53.901Z,91.90
2019-06-20T02:17:22.330Z,91.90
2019-06-20T02:19:50.978Z,91.80
2019-06-20T02:22:19.475Z,91.90
2019-06-20T02:24:47.912Z,91.90
2019-06-20T02:27:16.338Z,91.90
2019-06-20T02:29:44.830Z,91.80
2019-06-20T02:32:13.610Z,91.80
2019-06-20T02:34:42.049Z,91.80
2019-06-20T02:37:10.470Z,91.90
2019-06-20T02:39:38.916Z,91.80
2019-06-20T02:42:07.406Z,91.90
2019-06-20T02:44:35.847Z,91.90
2019-06-20T02:47:05.871Z,91.90
2019-06-20T02:49:34.315Z,92.00
2019-06-20T02:52:03.377Z,91.90
2019-06-20T02:54:32.022Z,91.90
2019-06-20T02:57:00.431Z,91.80
2019-06-20T02:59:28.871Z,91.90
2019-06-20T03:01:57.459Z,91.90
2019-06-20T03:04:25.875Z,91.80
2019-06-20T03:06:54.338Z,91.90
2019-06-20T03:09:22.758Z,91.70
2019-06-20T03:11:51.195Z,91.80
2019-06-20T03:14:19.612Z,91.90
2019-06-20T03:16:48.046Z,92.00
2019-06-20T03:19:16.493Z,91.80
2019-06-20T03:21:44.978Z,91.60
2019-06-20T03:24:13.394Z,91.50
2019-06-20T03:26:41.844Z,91.80
2019-06-20T03:29:10.254Z,91.80
2019-06-20T03:31:38.762Z,91.70
2019-06-20T03:34:07.320Z,91.60
2019-06-20T03:36:35.779Z,91.80
2019-06-20T03:39:06.799Z,91.80
2019-06-20T03:41:35.228Z,91.70
2019-06-20T03:44:03.714Z,91.80
2019-06-20T03:46:32.279Z,91.70
2019-06-20T03:49:00.711Z,91.70
2019-06-20T03:51:29.150Z,91.60
2019-06-20T03:53:57.574Z,91.60
2019-06-20T03:56:26.002Z,91.60
2019-06-20T03:58:54.422Z,91.90
2019-06-20T04:01:22.843Z,92.00
2019-06-20T04:03:51.292Z,92.00
2019-06-20T04:06:19.707Z,92.10
2019-06-20T04:08:48.159Z,92.10
2019-06-20T04:11:16.659Z,92.10
2019-06-20T04:13:45.102Z,92.10
2019-06-20T04:16:13.539Z,92.20
2019-06-20T04:18:42.003Z,92.20
2019-06-20T04:21:10.433Z,92.10
2019-06-20T04:23:38.944Z,92.10
2019-06-20T04:26:07.444Z,92.10
2019-06-20T04:28:35.979Z,92.10
2019-06-20T04:31:04.412Z,92.10
2019-06-20T04:33:32.845Z,92.00
2019-06-20T04:36:02.815Z,92.10
2019-06-20T04:38:31.250Z,91.90
2019-06-20T04:40:59.676Z,92.00
2019-06-20T04:43:28.118Z,92.00
2019-06-20T04:45:58.179Z,92.00
2019-06-20T04:48:26.618Z,92.10
2019-06-20T04:50:55.047Z,92.10
2019-06-20T04:53:23.486Z,92.00
2019-06-20T04:55:51.908Z,92.10
2019-06-20T04:58:20.339Z,92.10
2019-06-20T05:00:48.768Z,92.00
2019-06-20T05:03:17.256Z,91.80
2019-06-20T05:05:45.703Z,91.60
2019-06-20T05:08:14.123Z,91.50
2019-06-20T05:10:42.562Z,91.50
2019-06-20T05:13:11.004Z,91.70
2019-06-20T05:15:52.106Z,91.80
2019-06-20T05:18:11.261Z,91.90
2019-06-20T05:20:39.678Z,91.70
2019-06-20T05:23:08.111Z,91.80
2019-06-20T05:25:36.635Z,91.80
2019-06-20T05:28:05.052Z,91.90
2019-06-20T05:30:33.574Z,91.90
2019-06-20T05:33:02.059Z,92.00
2019-06-20T05:35:30.499Z,92.00
2019-06-20T05:37:58.923Z,92.10
2019-06-20T05:40:27.453Z,92.10
2019-06-20T05:42:55.876Z,92.20
2019-06-20T05:45:24.383Z,92.10
2019-06-20T05:47:52.819Z,91.90
2019-06-20T05:50:21.328Z,91.70
2019-06-20T05:52:49.842Z,91.60
2019-06-20T05:55:18.356Z,91.50
2019-06-20T05:57:46.793Z,91.60
2019-06-20T06:00:15.865Z,91.90
2019-06-20T06:02:44.364Z,92.10
2019-06-20T06:05:13.127Z,91.90
2019-06-20T06:07:41.635Z,91.70
2019-06-20T06:10:11.299Z,91.70
2019-06-20T06:12:39.741Z,91.60
2019-06-20T06:15:09.195Z,91.50
2019-06-20T06:17:38.630Z,90.70
2019-06-20T06:20:09.339Z,89.50
2019-06-20T06:22:37.855Z,90.00
2019-06-20T06:25:06.830Z,90.10
2019-06-20T06:27:35.284Z,90.00
2019-06-20T06:30:10.026Z,89.10
2019-06-20T06:32:40.457Z,88.10
2019-06-20T06:35:09.947Z,81.30
2019-06-20T06:37:38.661Z,82.90
2019-06-20T06:40:08.823Z,79.20
2019-06-20T06:42:37.337Z,81.10
2019-06-20T06:45:07.809Z,79.80
2019-06-20T06:47:36.317Z,82.40
2019-06-20T06:50:08.422Z,82.20
2019-06-20T06:52:39.449Z,82.10
2019-06-20T06:55:08.219Z,84.40
2019-06-20T06:57:36.739Z,83.90
2019-06-20T07:00:13.956Z,73.20
2019-06-20T07:02:42.415Z,76.10
2019-06-20T07:05:11.460Z,75.90
2019-06-20T07:07:39.947Z,71.20
2019-06-20T07:10:10.339Z,68.00
2019-06-20T07:12:38.839Z,63.80
2019-06-20T07:15:08.491Z,64.50
2019-06-20T07:17:37.001Z,60.00
2019-06-20T07:20:06.705Z,60.60
2019-06-20T07:22:35.860Z,58.60
2019-06-20T07:25:06.470Z,56.50
2019-06-20T07:27:35.009Z,54.50
2019-06-20T07:30:06.656Z,52.90
2019-06-20T07:32:35.089Z,60.10
2019-06-20T07:35:05.184Z,60.10
2019-06-20T07:37:33.608Z,58.90
2019-06-20T07:40:02.051Z,53.00
2019-06-20T07:42:30.611Z,60.10
2019-06-20T07:44:59.061Z,60.60
2019-06-20T07:47:27.485Z,59.90
2019-06-20T07:49:55.929Z,55.50
2019-06-20T07:52:24.450Z,53.70
2019-06-20T07:54:53.084Z,59.90
2019-06-20T07:57:21.519Z,53.50
2019-06-20T07:59:49.955Z,54.80
2019-06-20T08:02:18.398Z,60.10
2019-06-20T08:04:46.855Z,60.30
2019-06-20T08:07:15.274Z,60.30
2019-06-20T08:09:45.238Z,60.50
2019-06-20T08:12:14.027Z,57.20
2019-06-20T08:14:42.452Z,52.00
2019-06-20T08:17:10.986Z,55.50
2019-06-20T08:19:39.427Z,49.70
2019-06-20T08:22:07.927Z,52.60
2019-06-20T08:24:36.339Z,52.30
2019-06-20T08:27:04.996Z,51.50
2019-06-20T08:29:33.431Z,49.90
2019-06-20T08:32:02.704Z,52.50
2019-06-20T08:34:31.360Z,50.40
2019-06-20T08:37:00.558Z,47.90
2019-06-20T08:39:29.578Z,52.10
2019-06-20T08:41:59.211Z,48.90
2019-06-20T08:44:28.280Z,48.60
2019-06-20T08:46:59.389Z,50.40
2019-06-20T08:49:28.499Z,50.40
2019-06-20T08:51:57.342Z,50.50
2019-06-20T08:54:25.986Z,47.30
2019-06-20T08:56:57.038Z,47.60
2019-06-20T08:59:25.011Z,50.50
2019-06-20T09:01:56.504Z,47.80
2019-06-20T09:04:23.673Z,48.60
2019-06-20T09:06:53.985Z,47.80
2019-06-20T09:09:22.358Z,46.40
2019-06-20T09:11:50.831Z,47.70
2019-06-20T09:14:20.775Z,49.60
2019-06-20T09:16:49.223Z,48.40
2019-06-20T09:19:17.640Z,45.90
2019-06-20T09:21:47.603Z,49.20
2019-06-20T09:24:16.063Z,48.20
2019-06-20T09:26:44.503Z,50.60
2019-06-20T09:29:12.955Z,51.10
2019-06-20T09:31:41.376Z,49.90
2019-06-20T09:34:09.815Z,50.10
2019-06-20T09:36:38.324Z,48.90
2019-06-20T09:39:07.856Z,50.10
2019-06-20T09:41:36.286Z,49.60
2019-06-20T09:44:04.990Z,49.10
2019-06-20T09:46:33.436Z,49.70
2019-06-20T09:49:02.751Z,51.30
2019-06-20T09:51:31.452Z,46.20
2019-06-20T09:53:59.902Z,49.20
2019-06-20T09:56:28.403Z,51.50
2019-06-20T09:58:58.511Z,53.60
2019-06-20T10:01:26.953Z,54.30
2019-06-20T10:03:56.934Z,59.30
2019-06-20T10:06:25.372Z,60.90
2019-06-20T10:08:54.339Z,61.80
2019-06-20T10:11:22.962Z,60.80
2019-06-20T10:13:52.231Z,57.50
2019-06-20T10:16:20.744Z,53.40
2019-06-20T10:18:50.124Z,55.60
2019-06-20T10:21:18.642Z,60.60
2019-06-20T10:23:47.740Z,60.80
2019-06-20T10:26:16.417Z,60.80
2019-06-20T10:28:45.947Z,54.50
2019-06-20T10:31:15.045Z,52.10
2019-06-20T10:33:45.208Z,53.40
2019-06-20T10:36:13.722Z,52.50
2019-06-20T10:38:42.169Z,48.40
2019-06-20T10:41:10.678Z,55.40
2019-06-20T10:43:39.165Z,51.90
2019-06-20T10:46:07.686Z,54.20
2019-06-20T10:48:36.282Z,53.40
2019-06-20T10:51:06.451Z,48.80
2019-06-20T10:53:34.887Z,48.80
2019-06-20T10:56:03.469Z,51.10
2019-06-20T10:58:31.920Z,50.10
2019-06-20T11:01:00.413Z,49.20
2019-06-20T11:03:28.893Z,48.20
2019-06-20T11:05:57.313Z,50.80
2019-06-20T11:08:25.759Z,50.20
2019-06-20T11:10:54.266Z,49.60
2019-06-20T11:13:22.904Z,50.90
2019-06-20T11:15:51.340Z,47.60
2019-06-20T11:18:19.861Z,48.40
2019-06-20T11:20:48.813Z,50.70
2019-06-20T11:23:17.393Z,48.60
2019-06-20T11:25:46.629Z,46.90
2019-06-20T11:28:15.274Z,46.60
2019-06-20T11:30:55.301Z,49.30
2019-06-20T11:33:13.934Z,50.90
2019-06-20T11:35:43.431Z,50.30
2019-06-20T11:38:11.995Z,51.10
2019-06-20T11:40:41.560Z,50.30
2019-06-20T11:43:10.254Z,49.60
2019-06-20T11:45:38.979Z,48.70
2019-06-20T11:48:07.778Z,49.50
2019-06-20T11:50:36.393Z,49.30
2019-06-20T11:53:06.050Z,49.60
2019-06-20T11:55:34.480Z,48.00
2019-06-20T11:58:02.977Z,49.30
2019-06-20T12:00:31.633Z,48.10
2019-06-20T12:03:00.118Z,46.10
2019-06-20T12:05:28.567Z,47.70
2019-06-20T12:07:57.603Z,46.20
2019-06-20T12:10:26.056Z,47.90
2019-06-20T12:12:54.480Z,46.60
2019-06-20T12:15:23.534Z,47.30
2019-06-20T12:17:52.305Z,46.90
2019-06-20T12:20:21.692Z,47.40
2019-06-20T12:22:50.783Z,47.20
2019-06-20T12:25:20.347Z,46.40
2019-06-20T12:27:49.726Z,46.80
2019-06-20T12:30:19.762Z,45.40
2019-06-20T12:32:49.384Z,46.10
2019-06-20T12:35:19.881Z,46.70
2019-06-20T12:37:49.829Z,45.70
2019-06-20T12:40:19.415Z,47.40
2019-06-20T12:42:49.123Z,46.40
2019-06-20T12:45:18.466Z,46.70
2019-06-20T12:47:47.200Z,46.70
2019-06-20T12:50:17.711Z,46.80
2019-06-20T12:52:47.549Z,46.30
2019-06-20T12:55:16.322Z,46.40
2019-06-20T12:57:46.130Z,47.90
2019-06-20T13:00:16.029Z,47.80
2019-06-20T13:02:45.493Z,45.80
2019-06-20T13:05:15.289Z,47.20
2019-06-20T13:07:44.205Z,46.30
2019-06-20T13:10:14.646Z,44.80
2019-06-20T13:12:44.331Z,44.90
2019-06-20T13:15:13.479Z,45.40
2019-06-20T13:17:43.156Z,45.70
2019-06-20T13:20:12.710Z,45.80
2019-06-20T13:22:42.729Z,45.80
2019-06-20T13:25:11.864Z,46.50
2019-06-20T13:27:41.072Z,46.90
2019-06-20T13:30:11.160Z,46.50
2019-06-20T13:32:41.522Z,46.30
2019-06-20T13:35:10.601Z,46.80
2019-06-20T13:37:40.257Z,46.60
2019-06-20T13:40:13.242Z,47.00
2019-06-20T13:42:42.627Z,46.80
2019-06-20T13:45:20.594Z,45.70
2019-06-20T13:47:49.904Z,45.30
2019-06-20T13:50:19.718Z,46.20
2019-06-20T13:52:49.608Z,47.00
2019-06-20T13:55:18.537Z,45.70
2019-06-20T13:57:47.343Z,46.10
2019-06-20T14:00:18.284Z,46.00
2019-06-20T14:02:48.779Z,45.50
2019-06-20T14:05:17.955Z,45.30
2019-06-20T14:07:49.065Z,46.80
2019-06-20T14:10:18.223Z,45.90
2019-06-20T14:12:46.941Z,47.50
2019-06-20T14:15:17.103Z,47.00
2019-06-20T14:17:47.031Z,47.60
2019-06-20T14:20:17.205Z,46.80
2019-06-20T14:22:45.678Z,47.40
2019-06-20T14:25:14.935Z,47.80
2019-06-20T14:27:43.954Z,46.90
2019-06-20T14:30:13.678Z,46.30
2019-06-20T14:32:43.271Z,46.20
2019-06-20T14:35:12.438Z,47.00
2019-06-20T14:37:44.264Z,46.10
2019-06-20T14:40:13.517Z,46.70
2019-06-20T14:42:42.978Z,45.80
2019-06-20T14:45:13.244Z,45.70
2019-06-20T14:47:41.664Z,46.90
2019-06-20T14:50:11.054Z,47.40
2019-06-20T14:52:39.623Z,45.00
2019-06-20T14:55:09.146Z,44.90
2019-06-20T14:57:37.687Z,45.60
2019-06-20T15:00:10.630Z,43.80
2019-06-20T15:02:39.312Z,44.90
2019-06-20T15:05:16.307Z,44.30
2019-06-20T15:07:47.222Z,44.60
2019-06-20T15:10:16.978Z,44.40
2019-06-20T15:12:46.442Z,44.60
2019-06-20T15:15:15.967Z,44.50
2019-06-20T15:17:46.549Z,44.80
2019-06-20T15:20:15.395Z,46.10
2019-06-20T15:22:43.813Z,45.90
2019-06-20T15:25:12.711Z,51.90
2019-06-20T15:27:41.147Z,60.50
2019-06-20T15:30:10.454Z,61.30
2019-06-20T15:32:53.272Z,63.80
2019-06-20T15:35:10.359Z,64.30
2019-06-20T15:37:38.857Z,64.80
2019-06-20T15:40:08.445Z,64.20
2019-06-20T15:42:36.865Z,63.60
2019-06-20T15:45:07.536Z,62.60
2019-06-20T15:47:36.121Z,61.00
2019-06-20T15:50:09.092Z,56.20
2019-06-20T15:52:37.682Z,53.30
2019-06-20T15:55:06.872Z,58.50
2019-06-20T15:57:35.587Z,57.00
2019-06-20T16:00:09.119Z,51.70
2019-06-20T16:02:37.567Z,51.80
2019-06-20T16:05:10.069Z,52.30
2019-06-20T16:07:39.505Z,50.20
2019-06-20T16:10:09.235Z,54.30
2019-06-20T16:12:39.326Z,54.00
2019-06-20T16:15:09.314Z,50.80
2019-06-20T16:17:37.827Z,51.70
2019-06-20T16:20:06.810Z,51.40
2019-06-20T16:22:35.437Z,53.80
2019-06-20T16:25:06.321Z,48.70
2019-06-20T16:27:34.851Z,51.50
2019-06-20T16:30:05.322Z,51.20
2019-06-20T16:32:33.763Z,53.90
2019-06-20T16:35:02.187Z,54.50
2019-06-20T16:37:30.655Z,51.60
2019-06-20T16:39:59.159Z,55.00
2019-06-20T16:42:27.593Z,52.50
2019-06-20T16:44:56.024Z,52.80
2019-06-20T16:47:24.498Z,51.40
2019-06-20T16:49:52.917Z,53.10
2019-06-20T16:52:21.366Z,51.60
2019-06-20T16:54:49.926Z,50.50
2019-06-20T16:57:18.381Z,55.20
2019-06-20T16:59:46.827Z,52.90
2019-06-20T17:02:15.320Z,52.00
2019-06-20T17:04:43.860Z,50.90
2019-06-20T17:07:12.281Z,51.70
2019-06-20T17:09:40.751Z,51.40
2019-06-20T17:12:11.275Z,50.70
2019-06-20T17:14:39.454Z,52.30
2019-06-20T17:17:08.035Z,52.60
2019-06-20T17:19:36.466Z,53.00
2019-06-20T17:22:05.131Z,55.20
2019-06-20T17:24:33.634Z,55.80
2019-06-20T17:27:02.144Z,54.80
2019-06-20T17:29:30.591Z,56.20
2019-06-20T17:31:59.028Z,55.00
2019-06-20T17:34:27.505Z,53.70
2019-06-20T17:36:55.963Z,59.40
2019-06-20T17:39:24.513Z,60.30
2019-06-20T17:41:55.563Z,59.30
2019-06-20T17:44:23.363Z,59.90
2019-06-20T17:46:51.839Z,60.00
2019-06-20T17:49:20.286Z,59.70
2019-06-20T17:51:48.803Z,60.20
2019-06-20T17:54:17.281Z,61.50
2019-06-20T17:56:45.767Z,61.50
2019-06-20T17:59:14.211Z,62.80
2019-06-20T18:01:42.883Z,63.90
2019-06-20T18:04:14.056Z,62.60
2019-06-20T18:06:41.590Z,62.60
2019-06-20T18:09:10.942Z,63.10
2019-06-20T18:11:39.462Z,63.30
2019-06-20T18:14:07.985Z,63.80
2019-06-20T18:16:36.491Z,64.50
2019-06-20T18:19:05.164Z,63.70
2019-06-20T18:21:33.607Z,64.30
2019-06-20T18:24:02.041Z,64.40
2019-06-20T18:26:30.510Z,64.50
2019-06-20T18:28:59.018Z,63.70
2019-06-20T18:31:27.492Z,63.70
2019-06-20T18:33:55.910Z,63.20
2019-06-20T18:36:24.374Z,63.70
2019-06-20T18:38:52.814Z,62.20
2019-06-20T18:41:21.269Z,63.60
2019-06-20T18:43:49.712Z,63.50
2019-06-20T18:46:18.323Z,64.00
2019-06-20T18:48:46.862Z,64.30
2019-06-20T18:51:15.417Z,63.30
2019-06-20T18:53:43.881Z,62.60
2019-06-20T18:56:12.431Z,62.80
2019-06-20T18:58:40.987Z,63.30
2019-06-20T19:01:09.483Z,64.90
2019-06-20T19:03:37.887Z,68.30
2019-06-20T19:06:06.458Z,74.10
2019-06-20T19:08:35.014Z,72.90
2019-06-20T19:11:03.546Z,70.00
2019-06-20T19:13:32.076Z,72.00
2019-06-20T19:16:00.673Z,78.50
2019-06-20T19:18:29.169Z,84.10
2019-06-20T19:20:57.699Z,86.40
2019-06-20T19:23:26.165Z,87.20
2019-06-20T19:25:54.659Z,87.10
2019-06-20T19:28:23.127Z,88.30
2019-06-20T19:33:20.451Z,90.20
2019-06-20T19:35:48.882Z,87.50
2019-06-20T19:38:17.533Z,86.70
2019-06-20T19:40:50.709Z,86.40
2019-06-20T19:43:19.321Z,87.60
2019-06-20T19:45:47.893Z,87.70
2019-06-20T19:48:16.469Z,86.20
2019-06-20T19:50:45.357Z,85.70
2019-06-20T19:53:13.894Z,87.30
2019-06-20T19:55:42.870Z,87.50
2019-06-20T19:58:11.474Z,87.90
2019-06-20T20:00:40.012Z,88.80
2019-06-20T20:03:08.705Z,89.80
2019-06-20T20:05:37.287Z,90.30
2019-06-20T20:08:06.050Z,90.70
2019-06-20T20:10:46.511Z,90.30
2019-06-20T20:13:15.642Z,88.50
2019-06-20T20:15:44.958Z,88.30
2019-06-20T20:18:14.329Z,90.00
2019-06-20T20:20:47.393Z,90.00
2019-06-20T20:23:14.832Z,90.40
2019-06-20T20:25:43.332Z,89.80
2019-06-20T20:28:11.843Z,89.30
2019-06-20T20:30:40.471Z,89.10
2019-06-20T20:33:09.975Z,88.60
2019-06-20T20:35:38.430Z,87.30
2019-06-20T20:38:06.884Z,88.60
2019-06-20T20:40:35.403Z,88.30
2019-06-20T20:43:03.921Z,89.10
2019-06-20T20:45:32.374Z,89.20
2019-06-20T20:48:00.798Z,89.80
2019-06-20T20:50:29.261Z,90.20
2019-06-20T20:52:57.739Z,90.50
2019-06-20T20:55:26.166Z,90.80
2019-06-20T20:57:56.230Z,91.00
2019-06-20T21:00:48.327Z,91.20
2019-06-20T21:03:36.114Z,91.40
2019-06-20T21:06:04.642Z,91.20
2019-06-20T21:08:33.109Z,91.30
2019-06-20T21:11:01.556Z,91.20
2019-06-20T21:13:30.473Z,91.20
2019-06-20T21:15:58.971Z,90.80
2019-06-20T21:18:27.469Z,90.60
2019-06-20T21:20:56.003Z,90.60
2019-06-20T21:23:24.515Z,90.80
2019-06-20T21:25:52.991Z,91.00
2019-06-20T21:28:21.592Z,91.00
2019-06-20T21:30:51.679Z,90.80
2019-06-20T21:33:20.122Z,90.90
2019-06-20T21:35:48.546Z,90.80
2019-06-20T21:38:17.058Z,90.60
2019-06-20T21:40:45.764Z,90.60
2019-06-20T21:43:14.217Z,90.80
2019-06-20T21:45:42.710Z,91.00
2019-06-20T21:48:11.170Z,91.10
2019-06-20T21:50:39.663Z,91.10
2019-06-20T21:53:08.113Z,91.10
2019-06-20T21:55:36.599Z,91.00
2019-06-20T21:58:05.113Z,91.00
2019-06-20T22:00:41.228Z,91.30
2019-06-20T22:03:10.315Z,91.40
2019-06-20T22:05:39.482Z,91.40
2019-06-20T22:08:08.860Z,91.50
2019-06-20T22:10:37.462Z,91.60
2019-06-20T22:13:06.118Z,91.60
2019-06-20T22:15:34.618Z,91.70
2019-06-20T22:18:03.198Z,91.70
2019-06-20T22:20:31.768Z,91.70
2019-06-20T22:23:00.283Z,91.80
2019-06-20T22:25:28.958Z,91.90
2019-06-20T22:27:57.415Z,91.90
2019-06-20T22:30:43.928Z,91.90
2019-06-20T22:33:12.341Z,91.90
2019-06-20T22:35:41.155Z,91.90
2019-06-20T22:38:09.675Z,91.80
2019-06-20T22:40:38.092Z,91.70
2019-06-20T22:43:06.625Z,91.80
2019-06-20T22:45:35.351Z,91.80
2019-06-20T22:48:05.014Z,91.80
2019-06-20T22:50:33.457Z,91.80
2019-06-20T22:53:01.876Z,91.80
2019-06-20T22:55:30.403Z,91.80
2019-06-20T22:57:58.819Z,91.90
2019-06-20T23:00:27.508Z,91.80
2019-06-20T23:02:55.994Z,91.80
2019-06-20T23:05:24.443Z,91.80
2019-06-20T23:07:53.527Z,91.80
2019-06-20T23:10:22.047Z,91.90
2019-06-20T23:12:50.478Z,91.90
2019-06-20T23:15:19.372Z,91.80
2019-06-20T23:17:49.347Z,91.80
2019-06-20T23:20:18.629Z,91.60
2019-06-20T23:22:47.054Z,91.70
2019-06-20T23:25:15.742Z,91.70
2019-06-20T23:27:44.179Z,91.60
2019-06-20T23:30:15.583Z,91.60
2019-06-20T23:32:44.005Z,91.60
2019-06-20T23:35:12.522Z,91.60
2019-06-20T23:37:41.023Z,91.70
2019-06-20T23:40:10.841Z,91.70
2019-06-20T23:42:39.295Z,91.70
2019-06-20T23:45:09.046Z,91.80
2019-06-20T23:47:37.508Z,91.80
2019-06-20T23:50:09.571Z,91.90
2019-06-20T23:52:42.407Z,91.90
2019-06-20T23:55:10.966Z,91.90
2019-06-20T23:57:39.405Z,91.90
